Time;durP1;ratioP1;P1;durP2;ratioP2;P2;SDS_P1;SDS_P2;PMS_P1;PMS_P2;Temp;Humidity;BMP_temperature;BMP_pressure;BME280_temperature;BME280_humidity;BME280_pressure;Samples;Min_cycle;Max_cycle;Signal;HPM_P1;HPM_P2
2022/09/08 00:00:51;;;;;;;1.07;0.97;;;;;;;18.90;100.00;99628.97;5043801;28;20451;-50
2022/09/08 00:03:21;;;;;;;2.30;1.67;;;;;;;18.85;100.00;99623.06;5044432;28;20508;-50
2022/09/08 00:05:52;;;;;;;0.80;0.80;;;;;;;18.52;100.00;99618.28;5039177;28;20443;-51
2022/09/08 00:08:20;;;;;;;2.00;1.53;;;;;;;18.32;100.00;99618.84;5036980;28;20857;-49
2022/09/08 00:10:50;;;;;;;11.07;1.67;;;;;;;18.62;100.00;99611.22;5041660;28;20451;-50
2022/09/08 00:13:18;;;;;;;1.47;1.37;;;;;;;18.68;100.00;99609.97;5044233;28;20505;-50
2022/09/08 00:15:45;;;;;;;9.03;1.73;;;;;;;18.87;100.00;99610.34;5039919;28;21004;-51
2022/09/08 00:18:12;;;;;;;1.83;1.73;;;;;;;18.65;100.00;99604.81;5037022;28;20450;-50
2022/09/08 00:20:38;;;;;;;1.47;0.80;;;;;;;18.45;100.00;99605.34;5041758;28;20456;-50
2022/09/08 00:23:05;;;;;;;1.00;0.90;;;;;;;18.42;100.00;99601.06;5042308;28;20452;-50
2022/09/08 00:25:31;;;;;;;4.53;1.90;;;;;;;18.40;100.00;99588.69;5040738;28;20447;-50
2022/09/08 00:27:58;;;;;;;1.53;1.10;;;;;;;18.43;100.00;99588.47;5042835;28;20903;-51
2022/09/08 00:30:24;;;;;;;1.03;0.93;;;;;;;18.47;100.00;99585.44;5040831;28;20589;-50
2022/09/08 00:32:51;;;;;;;1.63;1.53;;;;;;;18.65;100.00;99577.91;5046534;28;20455;-50
2022/09/08 00:35:18;;;;;;;2.40;2.20;;;;;;;18.78;100.00;99573.34;5040906;28;20490;-50
2022/09/08 00:37:51;;;;;;;3.60;1.37;;;;;;;18.90;100.00;99572.41;5036617;28;20467;-50
2022/09/08 00:40:20;;;;;;;1.60;1.50;;;;;;;18.91;100.00;99584.03;5038457;28;20448;-50
2022/09/08 00:42:47;;;;;;;1.33;1.23;;;;;;;18.71;100.00;99577.44;5043729;28;20455;-49
2022/09/08 00:45:17;;;;;;;1.53;1.43;;;;;;;18.89;100.00;99577.91;5042712;28;20524;-50
2022/09/08 00:47:54;;;;;;;1.07;1.00;;;;;;;19.06;100.00;99580.22;5038213;28;20480;-50
2022/09/08 00:50:25;;;;;;;3.87;1.40;;;;;;;19.14;100.00;99585.88;5043379;28;20935;-50
2022/09/08 00:53:00;;;;;;;2.03;1.83;;;;;;;19.27;100.00;99575.03;5038989;28;20496;-50
2022/09/08 00:55:30;;;;;;;1.20;1.13;;;;;;;19.38;100.00;99575.06;5036274;28;20852;-51
2022/09/08 00:57:56;;;;;;;1.63;1.53;;;;;;;19.30;100.00;99573.94;5039784;28;20889;-50
2022/09/08 01:00:24;;;;;;;1.47;1.13;;;;;;;19.38;100.00;99574.22;5043202;28;20874;-51
2022/09/08 01:02:50;;;;;;;24.57;1.57;;;;;;;19.37;100.00;99561.72;5040104;28;20454;-49
2022/09/08 01:05:23;;;;;;;1.53;1.03;;;;;;;19.50;100.00;99559.81;5036268;28;20504;-51
2022/09/08 01:13:41;;;;;;;0.97;0.73;;;;;;;19.46;100.00;99574.47;5042811;28;20996;-50
2022/09/08 01:16:08;;;;;;;3.17;1.90;;;;;;;19.32;100.00;99572.84;5042253;28;20906;-50
2022/09/08 01:18:36;;;;;;;1.73;1.23;;;;;;;19.42;100.00;99567.59;5035710;28;20461;-49
2022/09/08 01:21:08;;;;;;;0.93;0.77;;;;;;;19.34;100.00;99572.75;5040229;28;20465;-51
2022/09/08 01:23:56;;;;;;;2.57;2.37;;;;;;;19.55;100.00;99572.94;5029366;28;20459;-50
2022/09/08 01:26:36;;;;;;;2.20;2.10;;;;;;;19.29;100.00;99581.16;5042681;28;20521;-50
2022/09/08 01:29:05;;;;;;;1.10;1.10;;;;;;;19.37;100.00;99575.19;5029498;28;20459;-50
2022/09/08 01:31:36;;;;;;;1.10;1.00;;;;;;;19.47;100.00;99574.38;5042657;28;20513;-49
2022/09/08 01:34:03;;;;;;;9.70;1.30;;;;;;;19.38;100.00;99575.06;5042253;28;20446;-50
2022/09/08 01:36:29;;;;;;;0.87;0.83;;;;;;;19.36;100.00;99571.66;5036441;28;20474;-50
2022/09/08 01:38:56;;;;;;;1.67;1.00;;;;;;;19.17;100.00;99571.31;5036131;28;20514;-50
2022/09/08 01:41:22;;;;;;;1.13;0.90;;;;;;;19.34;100.00;99576.28;5041857;28;20463;-50
2022/09/08 01:43:48;;;;;;;1.77;1.30;;;;;;;19.32;100.00;99563.88;5042495;28;20483;-50
2022/09/08 01:46:15;;;;;;;2.00;1.20;;;;;;;19.12;100.00;99555.50;5036380;28;21019;-50
2022/09/08 01:48:41;;;;;;;0.97;0.87;;;;;;;19.08;100.00;99561.25;5035249;28;20892;-49
2022/09/08 01:51:08;;;;;;;1.33;0.70;;;;;;;18.81;100.00;99551.56;5041918;28;20456;-50
2022/09/08 01:53:35;;;;;;;1.17;1.07;;;;;;;18.85;100.00;99554.88;5042559;28;20454;-51
2022/09/08 01:56:02;;;;;;;3.33;1.40;;;;;;;19.03;100.00;99558.88;5036095;28;20494;-49
2022/09/08 01:58:29;;;;;;;6.50;1.57;;;;;;;19.19;100.00;99545.13;5035641;28;20976;-50
2022/09/08 02:00:57;;;;;;;0.70;0.60;;;;;;;18.94;100.00;99551.50;5041601;28;20863;-50
2022/09/08 02:03:24;;;;;;;1.87;1.43;;;;;;;19.01;100.00;99547.34;5041859;28;20504;-49
2022/09/08 02:05:50;;;;;;;2.90;1.43;;;;;;;19.12;100.00;99544.72;5037612;28;20447;-49
2022/09/08 02:08:17;;;;;;;4.30;2.10;;;;;;;19.13;100.00;99546.44;5035290;28;20455;-49
2022/09/08 02:10:52;;;;;;;2.17;1.07;;;;;;;19.12;100.00;99542.03;5040546;28;20505;-50
2022/09/08 02:13:18;;;;;;;1.00;0.90;;;;;;;19.23;100.00;99534.00;5042475;28;20494;-50
2022/09/08 02:15:45;;;;;;;1.07;0.90;;;;;;;19.33;100.00;99531.47;5039046;28;20494;-51
2022/09/08 02:18:11;;;;;;;7.70;1.30;;;;;;;19.42;100.00;99535.25;5035428;28;20454;-50
2022/09/08 02:20:37;;;;;;;1.60;1.50;;;;;;;19.22;100.00;99537.66;5039359;28;20447;-50
2022/09/08 02:23:04;;;;;;;1.10;0.83;;;;;;;19.15;100.00;99557.09;5058392;28;20456;-50
2022/09/08 02:25:30;;;;;;;1.50;1.40;;;;;;;19.08;100.00;99547.78;5039133;28;20532;-49
2022/09/08 02:27:56;;;;;;;0.80;0.70;;;;;;;19.15;100.00;99547.19;5040671;28;20480;-50
2022/09/08 02:30:23;;;;;;;1.37;1.27;;;;;;;19.10;100.00;99549.38;5039131;28;20454;-51
2022/09/08 02:32:49;;;;;;;2.13;1.40;;;;;;;19.19;100.00;99547.81;5038101;28;20451;-51
2022/09/08 02:35:16;;;;;;;0.90;0.80;;;;;;;19.18;100.00;99549.63;5042003;28;20495;-50
2022/09/08 02:37:43;;;;;;;2.30;1.43;;;;;;;19.02;100.00;99535.59;5045930;28;20525;-49
2022/09/08 02:40:10;;;;;;;1.17;1.10;;;;;;;19.02;100.00;99538.31;5043238;28;20516;-49
2022/09/08 02:42:36;;;;;;;0.83;0.83;;;;;;;19.00;100.00;99542.94;5039125;28;20459;-51
2022/09/08 02:45:03;;;;;;;7.63;1.37;;;;;;;18.99;100.00;99559.22;5041109;28;20451;-50
2022/09/08 02:47:33;;;;;;;2.40;1.23;;;;;;;18.92;100.00;99570.47;5045212;28;20487;-50
2022/09/08 02:50:00;;;;;;;1.13;1.03;;;;;;;18.88;100.00;99586.97;5044511;28;20450;-52
2022/09/08 02:52:26;;;;;;;1.30;1.17;;;;;;;18.84;100.00;99578.25;5038660;28;20504;-51
2022/09/08 02:54:52;;;;;;;2.60;1.47;;;;;;;18.94;100.00;99568.53;5040447;28;20491;-51
2022/09/08 02:57:20;;;;;;;1.40;1.30;;;;;;;19.08;100.00;99551.31;5045462;28;20471;-51
2022/09/08 02:59:46;;;;;;;1.27;1.17;;;;;;;18.97;100.00;99558.50;5044017;28;20458;-52
2022/09/08 03:02:13;;;;;;;2.60;1.87;;;;;;;19.02;100.00;99580.53;5038481;28;20970;-51
2022/09/08 03:04:39;;;;;;;1.10;1.00;;;;;;;18.86;100.00;99583.53;5039887;28;20444;-51
2022/09/08 03:07:07;;;;;;;4.50;2.23;;;;;;;18.87;100.00;99591.47;5045344;28;20472;-51
2022/09/08 03:09:34;;;;;;;6.17;1.83;;;;;;;18.73;100.00;99582.72;5044367;28;20450;-51
2022/09/08 03:12:00;;;;;;;1.97;1.50;;;;;;;18.89;100.00;99580.59;5038786;28;20869;-51
2022/09/08 03:14:27;;;;;;;6.10;2.20;;;;;;;18.81;100.00;99583.00;5039281;28;20796;-51
2022/09/08 03:16:53;;;;;;;1.57;1.47;;;;;;;18.81;100.00;99572.25;5045332;28;20886;-52
2022/09/08 03:19:19;;;;;;;2.87;2.67;;;;;;;18.94;100.00;99567.66;5044133;28;20799;-51
2022/09/08 03:21:46;;;;;;;2.00;1.70;;;;;;;18.94;100.00;99568.53;5048830;28;20859;-51
2022/09/08 03:24:13;;;;;;;1.67;1.57;;;;;;;18.88;100.00;99560.03;5046166;28;20455;-51
2022/09/08 03:26:40;;;;;;;14.00;1.40;;;;;;;18.68;100.00;99561.53;5046807;28;20478;-52
2022/09/08 03:29:06;;;;;;;3.10;2.90;;;;;;;18.90;100.00;99563.47;5038618;28;20456;-51
2022/09/08 03:31:33;;;;;;;2.33;2.13;;;;;;;18.77;100.00;99549.19;5044891;28;20456;-51
2022/09/08 03:33:59;;;;;;;1.40;1.30;;;;;;;18.83;100.00;99546.91;5044628;28;20955;-51
2022/09/08 03:36:25;;;;;;;1.53;1.43;;;;;;;19.08;100.00;99524.38;5027075;28;21091;-52
2022/09/08 03:38:52;;;;;;;4.80;2.30;;;;;;;19.04;100.00;99522.03;5044717;28;20450;-51
2022/09/08 03:41:19;;;;;;;3.30;2.23;;;;;;;18.86;100.00;99522.44;5031275;28;20451;-51
2022/09/08 03:43:49;;;;;;;1.23;1.13;;;;;;;18.83;100.00;99528.06;5044825;28;20497;-50
2022/09/08 03:46:17;;;;;;;2.37;2.17;;;;;;;18.95;100.00;99512.81;5038672;28;20478;-51
2022/09/08 03:48:44;;;;;;;1.50;1.40;;;;;;;18.87;100.00;99509.84;5037930;28;20451;-51
2022/09/08 03:51:12;;;;;;;1.23;1.00;;;;;;;18.85;100.00;99506.41;5051231;28;20459;-50
2022/09/08 03:53:38;;;;;;;0.87;0.80;;;;;;;18.92;100.00;99504.97;5037932;28;20455;-52
2022/09/08 03:56:08;;;;;;;1.53;1.17;;;;;;;18.73;100.00;99497.41;5042833;28;20496;-51
2022/09/08 03:58:35;;;;;;;2.07;1.97;;;;;;;18.71;100.00;99491.28;5044723;28;20520;-51
2022/09/08 04:01:10;;;;;;;2.00;1.90;;;;;;;18.68;100.00;99494.22;5040001;28;20504;-52
2022/09/08 04:03:36;;;;;;;2.50;1.50;;;;;;;18.71;100.00;99496.66;5037576;28;20534;-52
2022/09/08 04:06:09;;;;;;;3.23;1.27;;;;;;;18.58;100.00;99504.75;5039565;28;20478;-51
2022/09/08 04:08:36;;;;;;;1.20;1.10;;;;;;;18.58;100.00;99512.84;5044380;28;20459;-51
2022/09/08 04:11:03;;;;;;;1.53;1.10;;;;;;;18.57;100.00;99511.13;5042018;28;20451;-51
2022/09/08 04:13:29;;;;;;;1.93;1.83;;;;;;;18.50;100.00;99512.56;5037209;28;20451;-51
2022/09/08 04:15:56;;;;;;;2.23;1.60;;;;;;;18.60;100.00;99510.88;5039087;28;20499;-51
2022/09/08 04:18:22;;;;;;;4.17;2.97;;;;;;;18.77;100.00;99511.50;5036640;28;20457;-51
2022/09/08 04:20:59;;;;;;;1.83;1.73;;;;;;;18.75;100.00;99513.44;5041196;28;20947;-51
2022/09/08 04:23:26;;;;;;;1.47;1.37;;;;;;;18.78;100.00;99507.84;5057793;28;20498;-51
2022/09/08 04:26:02;;;;;;;1.90;1.30;;;;;;;18.80;100.00;99511.28;5043756;28;20447;-51
2022/09/08 04:28:30;;;;;;;2.00;1.90;;;;;;;18.71;100.00;99506.56;5040681;28;20509;-52
2022/09/08 04:30:56;;;;;;;0.93;0.93;;;;;;;18.81;100.00;99515.69;5043942;28;20455;-51
2022/09/08 04:33:23;;;;;;;4.40;1.77;;;;;;;19.30;100.00;99512.81;5038096;28;20453;-51
2022/09/08 04:35:50;;;;;;;2.40;2.20;;;;;;;18.97;100.00;99512.69;5036767;28;20549;-52
2022/09/08 04:38:36;;;;;;;2.90;1.80;;;;;;;18.82;100.00;99510.19;5039352;28;20458;-52
2022/09/08 04:41:07;;;;;;;2.73;2.53;;;;;;;18.98;100.00;99519.81;5043658;28;21014;-52
2022/09/08 04:43:34;;;;;;;4.13;2.13;;;;;;;18.86;100.00;99513.50;5041872;28;20454;-51
2022/09/08 04:46:03;;;;;;;3.17;2.87;;;;;;;18.75;100.00;99524.22;5036537;28;20489;-51
2022/09/08 04:48:31;;;;;;;3.90;2.33;;;;;;;18.76;100.00;99520.53;5037540;28;20586;-51
2022/09/08 04:50:58;;;;;;;2.23;2.13;;;;;;;18.60;100.00;99521.66;5043251;28;21022;-51
2022/09/08 04:53:26;;;;;;;8.73;2.33;;;;;;;18.67;100.00;99515.88;5042719;28;20488;-51
2022/09/08 04:55:53;;;;;;;3.23;3.03;;;;;;;18.59;100.00;99516.38;5035598;28;20525;-52
2022/09/08 04:58:21;;;;;;;2.80;2.60;;;;;;;18.68;100.00;99506.81;5036461;28;20455;-51
2022/09/08 05:00:48;;;;;;;7.60;3.33;;;;;;;18.67;100.00;99494.31;5036876;28;20489;-51
2022/09/08 05:03:15;;;;;;;4.10;3.20;;;;;;;18.62;100.00;99482.00;5036229;28;20455;-51
2022/09/08 05:05:41;;;;;;;3.80;3.20;;;;;;;18.70;100.00;99483.31;5042305;28;20517;-52
2022/09/08 05:08:08;;;;;;;17.63;2.80;;;;;;;18.79;100.00;99477.25;5042646;28;20498;-51
2022/09/08 05:10:34;;;;;;;2.37;2.27;;;;;;;18.63;100.00;99473.00;5037051;28;20521;-52
2022/09/08 05:13:01;;;;;;;3.73;3.30;;;;;;;18.64;100.00;99480.13;5036130;28;20452;-51
2022/09/08 05:15:29;;;;;;;2.70;2.50;;;;;;;18.66;100.00;99485.38;5042254;28;20550;-52
2022/09/08 05:17:55;;;;;;;3.53;3.33;;;;;;;18.63;100.00;99483.75;5031733;28;20476;-51
2022/09/08 05:20:22;;;;;;;3.27;2.10;;;;;;;18.76;100.00;99482.84;5041458;28;20953;-51
2022/09/08 05:22:48;;;;;;;2.63;2.43;;;;;;;18.70;100.00;99494.09;5048050;28;20454;-51
2022/09/08 05:25:14;;;;;;;3.53;3.13;;;;;;;18.76;100.00;99502.56;5041436;28;20501;-50
2022/09/08 05:27:41;;;;;;;4.07;3.87;;;;;;;18.77;100.00;99495.34;5042787;28;20478;-50
2022/09/08 05:30:08;;;;;;;2.43;2.23;;;;;;;18.78;100.00;99514.09;5037798;28;20507;-50
2022/09/08 05:32:34;;;;;;;2.80;2.60;;;;;;;18.92;100.00;99518.44;5035782;28;20514;-49
2022/09/08 05:35:01;;;;;;;2.17;1.97;;;;;;;18.89;100.00;99524.03;5041048;28;20459;-50
2022/09/08 05:37:28;;;;;;;3.17;2.97;;;;;;;18.86;100.00;99522.44;5042338;28;20470;-50
2022/09/08 05:39:54;;;;;;;4.90;2.73;;;;;;;18.90;100.00;99515.84;5037316;28;20940;-50
2022/09/08 05:42:21;;;;;;;2.30;2.20;;;;;;;18.87;100.00;99529.53;5047534;28;20498;-49
2022/09/08 05:44:47;;;;;;;4.13;3.17;;;;;;;19.19;100.00;99540.59;5037374;28;20450;-50
2022/09/08 05:47:13;;;;;;;8.73;3.53;;;;;;;19.24;100.00;99542.94;5042451;28;20483;-50
2022/09/08 05:49:40;;;;;;;3.47;3.33;;;;;;;19.05;100.00;99551.56;5037571;28;20455;-50
2022/09/08 05:52:06;;;;;;;7.10;2.30;;;;;;;18.97;100.00;99556.66;5035924;28;20451;-49
2022/09/08 05:54:32;;;;;;;3.50;3.30;;;;;;;18.75;100.00;99562.78;5040428;28;20459;-50
2022/09/08 05:56:59;;;;;;;2.47;2.23;;;;;;;18.85;100.00;99562.94;5042177;28;20552;-50
2022/09/08 05:59:25;;;;;;;3.03;2.63;;;;;;;18.75;100.00;99562.78;5037467;28;20563;-49
2022/09/08 06:01:52;;;;;;;5.63;2.97;;;;;;;18.73;100.00;99555.78;5035681;28;20460;-50
2022/09/08 06:04:19;;;;;;;2.40;2.23;;;;;;;18.77;100.00;99565.34;5040360;28;20945;-49
2022/09/08 06:06:46;;;;;;;12.50;2.20;;;;;;;18.92;100.00;99572.31;5046892;28;20466;-50
2022/09/08 06:09:13;;;;;;;1.90;1.80;;;;;;;19.04;100.00;99570.50;5044074;28;20454;-50
2022/09/08 06:11:40;;;;;;;2.60;1.93;;;;;;;19.13;100.00;99578.78;5042116;28;20505;-51
2022/09/08 06:14:07;;;;;;;1.70;1.60;;;;;;;19.11;100.00;99575.34;5046899;28;20451;-51
2022/09/08 06:16:34;;;;;;;1.60;1.50;;;;;;;19.05;100.00;99574.91;5048639;28;20494;-52
2022/09/08 06:19:01;;;;;;;0.77;0.73;;;;;;;19.09;100.00;99573.75;5044188;28;20457;-51
2022/09/08 06:21:30;;;;;;;20.33;1.43;;;;;;;19.04;100.00;99571.38;5050685;28;20445;-52
2022/09/08 06:23:59;;;;;;;0.80;0.67;;;;;;;19.14;100.00;99572.41;5054514;28;20452;-51
2022/09/08 06:27:00;;;;;;;0.73;0.73;;;;;;;19.08;100.00;99569.31;5049067;28;20471;-52
2022/09/08 06:30:04;;;;;;;1.80;1.23;;;;;;;19.06;100.00;99566.75;5041746;28;20964;-51
2022/09/08 06:32:36;;;;;;;1.07;1.00;;;;;;;19.06;100.00;99571.28;5041872;28;20504;-52
2022/09/08 06:35:18;;;;;;;2.20;0.53;;;;;;;18.96;100.00;99572.94;5047000;28;20455;-51
2022/09/08 06:37:47;;;;;;;1.20;0.80;;;;;;;18.96;100.00;99570.25;5048608;28;20526;-51
2022/09/08 06:40:29;;;;;;;2.07;0.87;;;;;;;18.88;100.00;99581.56;5046438;28;20457;-51
2022/09/08 06:43:15;;;;;;;3.17;1.03;;;;;;;18.99;100.00;99581.63;5035087;28;20872;-52
2022/09/08 06:45:44;;;;;;;1.47;1.37;;;;;;;19.15;100.00;99582.19;5048401;28;20446;-51
2022/09/08 06:48:11;;;;;;;1.63;0.70;;;;;;;18.96;100.00;99592.66;5043146;28;20491;-51
2022/09/08 06:50:44;;;;;;;1.00;0.90;;;;;;;19.02;100.00;99592.19;5051676;28;20947;-51
2022/09/08 06:53:19;;;;;;;0.80;0.80;;;;;;;19.11;100.00;99601.41;5044416;28;20518;-51
2022/09/08 06:55:56;;;;;;;2.03;0.77;;;;;;;19.49;100.00;99595.84;5048602;28;21008;-51
2022/09/08 06:58:44;;;;;;;0.93;0.90;;;;;;;19.43;100.00;99599.84;5048424;28;20547;-51
2022/09/08 07:01:29;;;;;;;1.97;1.33;;;;;;;19.58;100.00;99599.66;5044958;28;20481;-52
2022/09/08 07:04:11;;;;;;;0.93;0.83;;;;;;;19.92;100.00;99595.22;5041594;28;20508;-52
2022/09/08 07:07:00;;;;;;;1.53;1.43;;;;;;;19.64;100.00;99596.53;5041572;28;20518;-51
2022/09/08 07:09:34;;;;;;;0.83;0.83;;;;;;;19.99;100.00;99596.44;5043993;28;20455;-51
2022/09/08 07:12:38;;;;;;;1.87;0.60;;;;;;;19.72;100.00;99600.31;5048751;28;20447;-52
2022/09/08 07:15:41;;;;;;;1.93;1.03;;;;;;;19.75;100.00;99593.84;5048182;28;20964;-51
2022/09/08 07:18:28;;;;;;;0.50;0.50;;;;;;;19.99;100.00;99604.53;5027521;28;20769;-51
2022/09/08 07:21:12;;;;;;;0.73;0.70;;;;;;;19.69;100.00;99611.34;5043266;28;20878;-50
2022/09/08 07:23:41;;;;;;;0.70;0.40;;;;;;;19.74;100.00;99603.78;5031779;28;20959;-51
2022/09/08 07:26:18;;;;;;;0.70;0.50;;;;;;;19.75;100.00;99610.91;5044905;28;20517;-52
2022/09/08 07:28:49;;;;;;;0.80;0.53;;;;;;;20.19;100.00;99595.75;5041017;28;20945;-51
2022/09/08 07:31:22;;;;;;;2.00;0.70;;;;;;;19.94;100.00;99598.66;5045081;28;20448;-52
2022/09/08 07:34:02;;;;;;;0.80;0.80;;;;;;;19.78;100.00;99602.56;5043866;28;20516;-51
2022/09/08 07:36:58;;;;;;;0.70;0.50;;;;;;;19.62;100.00;99617.34;5044621;28;20556;-51
2022/09/08 07:39:34;;;;;;;0.60;0.50;;;;;;;19.61;100.00;99610.25;5041078;28;20463;-52
2022/09/08 07:42:03;;;;;;;0.67;0.50;;;;;;;19.73;100.00;99617.34;5039498;28;20455;-51
2022/09/08 07:44:34;;;;;;;0.50;0.30;;;;;;;19.76;100.00;99614.44;5044781;28;20448;-49
2022/09/08 07:47:12;;;;;;;0.67;0.40;;;;;;;19.92;100.00;99620.38;5044343;28;20474;-50
2022/09/08 07:49:52;;;;;;;1.00;0.70;;;;;;;19.65;100.00;99623.38;5039740;28;20958;-49
2022/09/08 07:52:33;;;;;;;0.60;0.50;;;;;;;19.79;100.00;99622.31;5037675;28;20505;-51
2022/09/08 07:55:26;;;;;;;0.90;0.90;;;;;;;20.18;100.00;99617.47;5038910;28;20478;-50
2022/09/08 07:58:18;;;;;;;0.93;0.80;;;;;;;20.20;100.00;99615.50;5035320;28;20478;-50
2022/09/08 08:01:19;;;;;;;0.83;0.60;;;;;;;20.19;100.00;99621.88;5037825;28;20508;-50
2022/09/08 08:04:05;;;;;;;0.67;0.60;;;;;;;20.41;100.00;99627.28;5037297;28;20935;-49
2022/09/08 08:06:46;;;;;;;0.50;0.30;;;;;;;20.40;100.00;99637.22;5037688;28;20521;-49
2022/09/08 08:09:34;;;;;;;1.70;0.60;;;;;;;20.46;100.00;99638.63;5042212;28;20461;-49
2022/09/08 08:12:15;;;;;;;4.40;0.70;;;;;;;20.74;100.00;99645.34;5044646;28;20859;-49
2022/09/08 08:14:58;;;;;;;0.70;0.67;;;;;;;20.43;100.00;99652.38;5044357;28;20450;-49
2022/09/08 08:17:37;;;;;;;4.00;0.73;;;;;;;20.74;100.00;99655.31;5032681;28;20506;-51
2022/09/08 08:20:28;;;;;;;3.53;0.80;;;;;;;21.15;100.00;99649.22;5044026;28;20505;-50
2022/09/08 08:23:06;;;;;;;0.60;0.53;;;;;;;20.77;100.00;99646.94;5061989;28;20943;-50
2022/09/08 08:25:38;;;;;;;1.47;0.73;;;;;;;20.68;100.00;99651.25;5040947;28;20496;-50
2022/09/08 08:28:17;;;;;;;1.33;0.53;;;;;;;20.53;100.00;99647.94;5041717;28;20476;-50
2022/09/08 08:31:12;;;;;;;0.80;0.50;;;;;;;20.60;100.00;99653.72;5042466;28;20450;-50
2022/09/08 08:33:43;;;;;;;4.13;0.40;;;;;;;20.84;100.00;99650.88;5030719;28;20458;-49
2022/09/08 08:36:13;;;;;;;7.63;0.57;;;;;;;20.69;100.00;99651.13;5043623;28;20500;-49
2022/09/08 08:38:47;;;;;;;0.50;0.30;;;;;;;20.87;100.00;99646.09;5041677;28;20455;-49
2022/09/08 08:41:39;;;;;;;0.50;0.40;;;;;;;20.90;100.00;99642.25;5036584;28;20442;-50
2022/09/08 08:44:50;;;;;;;0.70;0.53;;;;;;;21.22;100.00;99653.97;5036716;28;20451;-50
2022/09/08 08:47:56;;;;;;;0.90;0.50;;;;;;;21.05;100.00;99645.56;5040252;28;20503;-50
2022/09/08 08:50:41;;;;;;;1.43;0.77;;;;;;;21.21;100.00;99656.81;5043788;28;20446;-52
2022/09/08 08:53:19;;;;;;;0.83;0.70;;;;;;;21.10;99.26;99655.00;5040631;28;20450;-52
2022/09/08 08:56:27;;;;;;;2.57;0.47;;;;;;;20.94;96.50;99660.78;5036279;28;20516;-52
2022/09/08 08:59:21;;;;;;;0.70;0.50;;;;;;;21.22;94.65;99667.50;5036566;28;20447;-51
2022/09/08 09:02:23;;;;;;;0.73;0.60;;;;;;;21.32;95.11;99666.78;5036452;28;20574;-51
2022/09/08 09:05:14;;;;;;;0.50;0.30;;;;;;;21.16;94.54;99664.44;5036536;28;20490;-50
2022/09/08 09:08:01;;;;;;;1.37;0.63;;;;;;;21.51;92.69;99669.66;5030268;28;20475;-53
2022/09/08 09:10:58;;;;;;;0.50;0.40;;;;;;;21.58;92.42;99669.03;5042806;28;20505;-51
2022/09/08 09:13:36;;;;;;;0.80;0.30;;;;;;;22.02;91.82;99675.19;5043239;28;20510;-53
2022/09/08 09:16:33;;;;;;;0.83;0.63;;;;;;;21.82;88.37;99681.47;5041424;28;20482;-52
2022/09/08 09:19:15;;;;;;;0.60;0.43;;;;;;;21.56;86.64;99683.66;5038928;28;20450;-52
2022/09/08 09:22:05;;;;;;;1.23;0.40;;;;;;;21.65;85.68;99680.16;5045993;28;20446;-52
2022/09/08 09:24:44;;;;;;;0.70;0.50;;;;;;;21.66;86.91;99681.06;5040534;28;21030;-52
2022/09/08 09:27:40;;;;;;;0.80;0.53;;;;;;;21.73;86.83;99677.69;5045330;28;21014;-52
2022/09/08 09:30:06;;;;;;;0.60;0.40;;;;;;;21.57;86.59;99682.69;5029407;28;20525;-52
2022/09/08 09:32:54;;;;;;;1.60;0.40;;;;;;;21.65;84.70;99684.72;5042357;28;20450;-52
2022/09/08 09:35:47;;;;;;;0.90;0.40;;;;;;;21.47;85.56;99695.25;5039364;28;20451;-52
2022/09/08 09:38:31;;;;;;;0.50;0.30;;;;;;;21.79;84.03;99693.41;5028394;28;20502;-52
2022/09/08 09:41:30;;;;;;;1.43;0.40;;;;;;;21.71;83.06;99697.75;5035104;28;20451;-52
2022/09/08 09:44:11;;;;;;;9.70;0.60;;;;;;;21.64;83.74;99691.97;5047522;28;20508;-52
2022/09/08 09:46:59;;;;;;;1.80;0.37;;;;;;;21.75;86.17;99708.16;5039107;28;20474;-51
2022/09/08 09:49:28;;;;;;;2.40;1.03;;;;;;;21.71;83.74;99705.88;5035177;28;20503;-52
2022/09/08 09:52:21;;;;;;;0.40;0.30;;;;;;;21.29;85.83;99705.75;5035625;28;20865;-51
2022/09/08 09:55:45;;;;;;;0.80;0.40;;;;;;;21.50;85.19;99714.78;5029019;28;20825;-51
2022/09/08 09:58:39;;;;;;;0.50;0.30;;;;;;;21.22;86.04;99697.22;4997644;28;20501;-52
2022/09/08 10:01:31;;;;;;;1.27;0.50;;;;;;;21.50;86.73;99703.09;5006624;28;20452;-51
2022/09/08 10:04:06;;;;;;;0.60;0.40;;;;;;;21.57;85.38;99707.03;5041104;28;20460;-52
2022/09/08 10:06:39;;;;;;;0.50;0.37;;;;;;;21.65;84.47;99709.06;5041684;28;20532;-51
2022/09/08 10:10:06;;;;;;;0.97;0.30;;;;;;;21.29;84.91;99711.16;5028942;28;20555;-51
2022/09/08 10:13:01;;;;;;;0.50;0.30;;;;;;;21.35;83.40;99705.22;5028696;28;20459;-52
2022/09/08 10:16:13;;;;;;;0.70;0.70;;;;;;;21.46;84.86;99702.50;5041913;28;20455;-52
2022/09/08 10:18:52;;;;;;;4.73;0.73;;;;;;;21.32;85.55;99699.22;5034365;28;20450;-52
2022/09/08 10:21:37;;;;;;;3.80;0.50;;;;;;;21.49;84.88;99698.66;5042956;28;20480;-50
2022/09/08 10:24:26;;;;;;;0.50;0.30;;;;;;;21.96;84.72;99696.53;5045648;28;20451;-51
2022/09/08 10:27:11;;;;;;;0.60;0.37;;;;;;;22.11;84.45;99698.81;5036454;28;21315;-52
2022/09/08 10:30:02;;;;;;;1.10;0.53;;;;;;;22.52;82.71;99699.78;5034970;28;20450;-51
2022/09/08 10:32:59;;;;;;;0.60;0.40;;;;;;;22.30;81.66;99702.63;5035292;28;20451;-52
2022/09/08 10:35:41;;;;;;;0.50;0.30;;;;;;;22.38;80.83;99705.53;5036983;28;20949;-52
2022/09/08 10:38:26;;;;;;;1.73;1.10;;;;;;;22.60;80.81;99708.06;5035136;28;20981;-52
2022/09/08 10:40:56;;;;;;;2.10;0.93;;;;;;;22.61;79.40;99708.94;5035232;28;20425;-53
2022/09/08 10:43:38;;;;;;;0.50;0.30;;;;;;;22.66;77.94;99704.84;5038464;28;20451;-52
2022/09/08 10:46:23;;;;;;;0.40;0.20;;;;;;;22.32;80.66;99714.19;5041917;28;20992;-52
2022/09/08 10:48:58;;;;;;;1.53;0.50;;;;;;;22.49;80.27;99710.03;5035072;28;20451;-52
2022/09/08 10:51:36;;;;;;;2.67;0.47;;;;;;;22.38;80.35;99708.25;5039063;28;20804;-53
2022/09/08 10:54:14;;;;;;;1.60;1.50;;;;;;;22.36;81.65;99707.53;5044988;28;20451;-52
2022/09/08 10:56:44;;;;;;;0.50;0.30;;;;;;;22.01;82.29;99703.25;5044060;28;20593;-51
2022/09/08 10:59:13;;;;;;;1.00;0.50;;;;;;;22.09;81.47;99700.81;5038735;28;20943;-52
2022/09/08 11:02:09;;;;;;;0.77;0.37;;;;;;;22.48;80.00;99714.59;5038837;28;20538;-52
2022/09/08 11:04:57;;;;;;;0.67;0.60;;;;;;;22.03;82.39;99705.84;5041374;28;20851;-53
2022/09/08 11:07:56;;;;;;;0.60;0.47;;;;;;;22.28;82.20;99704.63;5032534;28;20882;-52
2022/09/08 11:10:37;;;;;;;1.93;0.43;;;;;;;22.49;80.40;99704.63;5050339;28;20454;-52
2022/09/08 11:13:19;;;;;;;0.60;0.43;;;;;;;22.06;82.83;99711.88;5038252;28;20456;-51
2022/09/08 11:15:54;;;;;;;3.13;0.40;;;;;;;21.94;83.05;99701.22;5042757;28;20883;-51
2022/09/08 11:18:36;;;;;;;0.50;0.40;;;;;;;21.85;83.47;99713.69;5047425;28;20600;-51
2022/09/08 11:21:08;;;;;;;0.60;0.57;;;;;;;21.92;81.00;99717.56;5044038;28;20447;-50
2022/09/08 11:23:40;;;;;;;1.20;0.60;;;;;;;22.44;79.45;99713.13;5056548;28;20452;-52
2022/09/08 11:26:11;;;;;;;0.70;0.40;;;;;;;22.65;78.49;99713.97;5044999;28;20493;-51
2022/09/08 11:29:09;;;;;;;0.67;0.50;;;;;;;22.54;77.73;99710.47;5040869;28;20444;-52
2022/09/08 11:31:49;;;;;;;9.20;0.60;;;;;;;22.85;77.31;99709.50;5031733;28;20502;-51
2022/09/08 11:34:53;;;;;;;1.13;1.03;;;;;;;22.99;75.21;99708.28;5044915;28;20450;-51
2022/09/08 11:37:57;;;;;;;0.83;0.50;;;;;;;23.24;74.80;99705.09;5044500;28;20469;-52
2022/09/08 11:41:10;;;;;;;0.70;0.50;;;;;;;23.10;73.83;99705.47;5043475;28;20483;-51
2022/09/08 11:44:08;;;;;;;0.80;0.50;;;;;;;23.37;73.46;99699.41;5003616;28;20452;-52
2022/09/08 11:47:22;;;;;;;0.50;0.40;;;;;;;23.55;72.04;99710.41;5041304;28;20482;-52
2022/09/08 11:50:10;;;;;;;1.30;0.87;;;;;;;23.44;72.45;99711.44;4995470;28;20501;-50
2022/09/08 11:53:15;;;;;;;1.33;0.67;;;;;;;23.52;72.53;99705.28;5040483;28;20480;-51
2022/09/08 11:56:11;;;;;;;0.50;0.30;;;;;;;23.32;73.11;99707.13;5031217;28;20512;-51
2022/09/08 11:58:52;;;;;;;2.80;1.40;;;;;;;23.14;72.15;99700.63;5044248;28;20469;-51
2022/09/08 12:01:34;;;;;;;7.13;1.90;;;;;;;23.05;73.62;99688.78;5041582;28;20544;-51
2022/09/08 12:04:26;;;;;;;2.80;0.53;;;;;;;23.02;73.92;99706.16;5037112;28;20433;-51
2022/09/08 12:07:12;;;;;;;1.07;0.37;;;;;;;23.70;72.23;99697.31;5038121;28;20444;-51
2022/09/08 12:10:30;;;;;;;0.60;0.40;;;;;;;23.74;71.62;99690.63;5038338;28;20488;-50
2022/09/08 12:13:22;;;;;;;0.87;0.40;;;;;;;23.44;70.30;99695.16;5026384;28;20444;-49